Tuesday, October 17, 2017, 2:51 PM EDT
Back to Local

KUCP, New Castle, New Castle Municipal Airport

Location: Edinburg, PA, United States Lat: 41.025
Local Time: 2:51 PM EDT (18:51 GMT) Lon: -80.413
Time Zone: US/Eastern Elev: 1072 ft

Show me the last for .
Show Decoded

2017-10-17 13:56 METAR KUCP 171756Z AUTO 24011KT 10SM CLR 16/03 A3029 RMK AO2 SLP276 T01610033
                 10167 21011 58018 =
2017-10-17 12:56 METAR KUCP 171656Z AUTO 25008G14KT 10SM CLR 16/04 A3031 RMK AO2 SLP284 T01560039
                 =
2017-10-17 11:56 METAR KUCP 171556Z AUTO 23007KT 10SM CLR 14/04 A3033 RMK AO2 SLP290 T01390039 =
2017-10-17 10:56 METAR KUCP 171456Z AUTO 20006KT 10SM CLR 11/04 A3034 RMK AO2 SLP296 T01110039
                 58002 =
2017-10-17 09:56 METAR KUCP 171356Z AUTO 22004KT 10SM CLR 07/03 A3035 RMK AO2 SLP301 T00720033 =
2017-10-17 08:56 METAR KUCP 171256Z AUTO 00000KT 10SM CLR 02/02 A3036 RMK AO2 SLP304 T00220017 =
2017-10-17 07:56 METAR KUCP 171156Z AUTO 00000KT 10SM CLR M01/M02 A3035 RMK AO2 SLP301 T10111017
                 10000 21011 51008 =
2017-10-17 06:56 METAR KUCP 171056Z AUTO 00000KT 10SM CLR M01/M02 A3034 RMK AO2 SLP298 T10111017
                 =
2017-10-17 05:56 METAR KUCP 170956Z AUTO 00000KT 10SM CLR M01/M02 A3034 RMK AO2 SLP296 T10111017
                 =
2017-10-17 04:56 METAR KUCP 170856Z AUTO 00000KT 10SM CLR M01/M01 A3032 RMK AO2 SLP290 T10061011
                 53005 =
2017-10-17 03:56 METAR KUCP 170756Z AUTO 00000KT 10SM CLR M01/M01 A3031 RMK AO2 SLP286 T10061011
                 =
2017-10-17 02:56 METAR KUCP 170656Z AUTO 00000KT 10SM CLR M01/M01 A3031 RMK AO2 SLP285 T10061006
                 =
2017-10-17 01:56 METAR KUCP 170556Z AUTO 00000KT 10SM CLR 00/M01 A3031 RMK AO2 SLP284 T00001006
                 10078 20000 55000 =
2017-10-17 00:56 METAR KUCP 170456Z AUTO 00000KT 10SM CLR 01/01 A3029 RMK AO2 SLP280 T00110006
                 401500011 =
2017-10-16 23:56 METAR KUCP 170356Z AUTO 00000KT 10SM CLR 02/01 A3031 RMK AO2 SLP284 T00220006 =
2017-10-16 22:56 METAR KUCP 170256Z AUTO 00000KT 10SM CLR 03/01 A3031 RMK AO2 SLP285 T00280011
                 51008 =
2017-10-16 21:56 METAR KUCP 170156Z AUTO 00000KT 10SM CLR 03/01 A3030 RMK AO2 SLP283 T00330011 =
2017-10-16 20:56 METAR KUCP 170056Z AUTO 00000KT 10SM CLR 07/00 A3030 RMK AO2 SLP279 T00720000 =
2017-10-16 19:56 METAR KUCP 162356Z AUTO 00000KT 10SM CLR 08/01 A3028 RMK AO2 SLP275 T00780006
                 10150 20078 53013 =
2017-10-16 18:56 METAR KUCP 162256Z AUTO 35003KT 10SM CLR 09/01 A3027 RMK AO2 SLP268 T00940006 =
2017-10-16 17:56 METAR KUCP 162156Z AUTO 33009KT 10SM CLR 12/01 A3026 RMK AO2 SLP264 T01170011 =
2017-10-16 16:56 METAR KUCP 162056Z AUTO 33010KT 10SM FEW055 SCT070 13/01 A3025 RMK AO2 SLP260
                 T01280006 53005 =
2017-10-16 15:56 METAR KUCP 161956Z AUTO 34011KT 10SM BKN060 13/01 A3023 RMK AO2 SLP254 T01330011
                 =
2017-10-16 14:56 METAR KUCP 161856Z AUTO 30007KT 250V340 10SM BKN060 14/01 A3023 RMK AO2 SLP252
                 T01440006 =

Support USWX by starting your Amazon purchase here.